Time;durP1;ratioP1;P1;durP2;ratioP2;P2;SDS_P1;SDS_P2;PMS_P1;PMS_P2;Temp;Humidity;BMP_temperature;BMP_pressure;BME280_temperature;BME280_humidity;BME280_pressure;Samples;Min_cycle;Max_cycle;Signal;HPM_P1;HPM_P2
2020/12/01 00:02:20;;;;;;;10.45;5.82;;;;;;;2.49;75.21;99793.59;5081789;28;20413;-89
2020/12/01 00:04:45;;;;;;;14.95;6.53;;;;;;;2.45;75.53;99786.28;5098196;28;20059;-87
2020/12/01 00:07:11;;;;;;;14.27;6.38;;;;;;;2.47;75.34;99789.53;5081825;28;20028;-80
2020/12/01 00:09:37;;;;;;;13.43;6.57;;;;;;;2.47;75.58;99792.97;5075196;28;20099;-78
2020/12/01 00:12:02;;;;;;;12.27;6.03;;;;;;;2.48;75.34;99794.63;5076052;28;20436;-76
2020/12/01 00:14:28;;;;;;;10.48;6.28;;;;;;;2.45;75.56;99783.66;5078693;28;20095;-78
2020/12/01 00:16:53;;;;;;;11.68;7.00;;;;;;;2.40;74.97;99779.81;5075028;28;20028;-75
2020/12/01 00:19:19;;;;;;;13.15;6.55;;;;;;;2.46;75.36;99787.91;5074534;28;20063;-76
2020/12/01 00:21:45;;;;;;;13.25;6.15;;;;;;;2.40;74.99;99779.81;5092862;28;20479;-76
2020/12/01 00:24:11;;;;;;;14.52;6.63;;;;;;;2.43;75.32;99781.22;5075125;28;20364;-85
2020/12/01 00:26:36;;;;;;;12.40;6.82;;;;;;;2.35;75.54;99784.84;5085953;28;20035;-84
2020/12/01 00:29:02;;;;;;;15.85;7.25;;;;;;;2.36;76.01;99791.75;5075062;28;20028;-84
2020/12/01 00:31:28;;;;;;;22.27;7.38;;;;;;;2.33;76.22;99786.91;5075495;28;20406;-84
2020/12/01 00:33:53;;;;;;;13.02;7.20;;;;;;;2.30;76.18;99787.28;5075606;28;20032;-87
2020/12/01 00:36:25;;;;;;;14.95;7.22;;;;;;;2.33;76.07;99786.91;5074924;28;20039;-76
2020/12/01 00:38:50;;;;;;;19.83;8.57;;;;;;;2.29;75.90;99790.16;5075358;28;20055;-75
2020/12/01 00:41:16;;;;;;;15.57;8.55;;;;;;;2.23;76.37;99781.19;5099385;28;20051;-74
2020/12/01 00:43:42;;;;;;;14.77;7.65;;;;;;;2.28;76.44;99785.88;5114070;28;20072;-79
2020/12/01 00:46:07;;;;;;;17.45;7.60;;;;;;;2.35;76.16;99789.34;5094952;28;20485;-79
2020/12/01 00:48:32;;;;;;;18.88;8.52;;;;;;;2.34;76.60;99785.06;5091716;28;20039;-77
2020/12/01 00:50:58;;;;;;;13.40;6.95;;;;;;;2.32;75.98;99784.44;5075477;28;20467;-81
2020/12/01 00:53:23;;;;;;;12.80;6.55;;;;;;;2.27;75.65;99774.53;5078075;28;20097;-82
2020/12/01 00:55:49;;;;;;;18.20;8.60;;;;;;;2.28;76.45;99785.88;5071545;28;20166;-78
2020/12/01 00:58:14;;;;;;;17.10;8.05;;;;;;;2.23;75.93;99781.19;5071143;28;20024;-76
2020/12/01 01:00:40;;;;;;;18.65;8.27;;;;;;;2.28;76.10;99794.59;5071348;28;20029;-84
2020/12/01 01:03:05;;;;;;;20.27;9.82;;;;;;;2.20;76.16;99779.78;5071077;28;20013;-78
2020/12/01 01:05:31;;;;;;;17.27;8.60;;;;;;;2.28;76.34;99778.75;5071470;28;20020;-77
2020/12/01 01:07:56;;;;;;;12.57;7.55;;;;;;;2.28;76.20;99789.31;5071151;28;20024;-77
2020/12/01 01:10:28;;;;;;;17.40;7.78;;;;;;;2.31;75.98;99781.00;5082992;28;20042;-76
2020/12/01 01:12:54;;;;;;;15.98;7.53;;;;;;;2.36;75.88;99786.47;5091512;28;20020;-75
2020/12/01 01:15:24;;;;;;;13.85;7.75;;;;;;;2.27;75.81;99774.53;5092565;28;20030;-75
2020/12/01 01:17:50;;;;;;;16.67;8.40;;;;;;;2.36;76.28;99777.75;5092478;28;20024;-75
2020/12/01 01:20:15;;;;;;;21.05;8.55;;;;;;;2.29;76.46;99769.03;5073762;28;20029;-75
2020/12/01 01:22:40;;;;;;;16.90;9.15;;;;;;;2.30;76.27;99770.66;5071198;28;20470;-76
2020/12/01 01:25:07;;;;;;;16.67;9.20;;;;;;;2.28;76.59;99767.41;5072587;28;20036;-84
2020/12/01 01:27:32;;;;;;;18.40;8.90;;;;;;;2.26;76.49;99770.25;5071068;28;20032;-83
2020/12/01 01:29:58;;;;;;;19.20;8.50;;;;;;;2.28;76.80;99772.69;5070901;28;20024;-80
2020/12/01 01:32:23;;;;;;;21.55;9.02;;;;;;;2.24;76.84;99765.16;5087701;28;20494;-81
2020/12/01 01:34:49;;;;;;;19.92;9.55;;;;;;;2.30;76.67;99765.38;5091055;28;20492;-91
2020/12/01 01:37:14;;;;;;;16.42;7.55;;;;;;;2.33;76.44;99762.31;5090667;28;20470;-85
2020/12/01 01:39:40;;;;;;;18.85;9.77;;;;;;;2.31;76.54;99772.28;5074184;28;20024;-84
2020/12/01 01:42:10;;;;;;;17.02;7.90;;;;;;;2.33;76.51;99771.06;5070429;28;20016;-88
2020/12/01 01:44:37;;;;;;;19.00;7.63;;;;;;;2.33;76.04;99771.06;5074716;28;20035;-89
2020/12/01 01:47:20;;;;;;;19.42;7.22;;;;;;;2.36;75.48;99770.66;5090782;28;20098;-91
2020/12/01 01:49:50;;;;;;;11.68;7.57;;;;;;;2.36;75.38;99775.13;5088403;28;20093;-86
2020/12/01 01:52:35;;;;;;;16.77;8.57;;;;;;;2.36;75.45;99773.28;5076676;28;20070;-88
2020/12/01 01:55:09;;;;;;;19.77;9.10;;;;;;;2.37;75.24;99766.19;5091511;28;20020;-87
2020/12/01 01:57:35;;;;;;;19.88;8.38;;;;;;;2.38;74.98;99767.78;5090470;28;20113;-83
2020/12/01 02:00:10;;;;;;;17.40;9.13;;;;;;;2.38;75.01;99763.34;5090487;28;20027;-85
2020/12/01 02:02:35;;;;;;;16.13;8.63;;;;;;;2.37;75.09;99767.00;5090318;28;20432;-86
2020/12/01 02:05:01;;;;;;;18.50;8.20;;;;;;;2.34;74.81;99748.91;5090623;28;20012;-87
2020/12/01 02:07:26;;;;;;;20.20;10.25;;;;;;;2.36;74.75;99756.66;5082961;28;20062;-84
2020/12/01 02:09:56;;;;;;;17.88;8.45;;;;;;;2.30;74.62;99752.97;5086135;28;20031;-84
2020/12/01 02:12:22;;;;;;;16.13;8.13;;;;;;;2.31;74.42;99757.25;5090235;28;20027;-86
2020/12/01 02:15:01;;;;;;;20.42;8.27;;;;;;;2.31;73.89;99759.88;5090341;28;20028;-80
2020/12/01 02:17:32;;;;;;;17.75;8.23;;;;;;;2.29;74.03;99750.56;5090170;28;20020;-82
2020/12/01 02:20:05;;;;;;;15.70;7.85;;;;;;;2.32;73.91;99763.34;5076953;28;20092;-85
2020/12/01 02:22:31;;;;;;;11.60;6.68;;;;;;;2.28;73.81;99755.00;5070405;28;20025;-86
2020/12/01 02:24:57;;;;;;;13.02;6.97;;;;;;;2.16;73.62;99743.44;5079820;28;20054;-82
2020/12/01 02:27:25;;;;;;;16.63;7.53;;;;;;;2.23;73.79;99749.53;5090086;28;20479;-79
2020/12/01 02:29:54;;;;;;;15.38;7.28;;;;;;;2.22;73.63;99748.72;5090212;28;20035;-78
2020/12/01 02:32:19;;;;;;;;;;;;;;;2.19;74.14;99756.25;5090449;28;20024;-77
2020/12/01 02:34:47;;;;;;;11.70;7.38;;;;;;;2.11;74.62;99746.69;5074893;28;19912;-79
2020/12/01 02:37:19;;;;;;;13.80;7.10;;;;;;;2.14;73.75;99756.06;5069736;28;20107;-78
2020/12/01 02:39:45;;;;;;;22.42;8.15;;;;;;;2.10;74.25;99753.00;5078546;28;20035;-78
2020/12/01 02:42:17;;;;;;;15.68;7.68;;;;;;;2.01;74.24;99749.72;5089906;28;20432;-79
2020/12/01 02:44:42;;;;;;;16.02;7.53;;;;;;;2.06;73.96;99751.75;5089736;28;20027;-77
2020/12/01 02:50:38;;;;;;;12.23;6.32;;;;;;;2.03;73.92;99755.63;5048114;28;20090;-89
2020/12/01 02:53:03;;;;;;;18.88;7.57;;;;;;;2.04;73.90;99751.19;5050040;28;20064;-85
2020/12/01 02:55:29;;;;;;;14.60;7.40;;;;;;;2.05;74.28;99753.59;5049261;28;20136;-84
2020/12/01 02:57:54;;;;;;;15.32;7.60;;;;;;;2.02;74.06;99751.34;5049441;28;20108;-78
2020/12/01 03:00:19;;;;;;;17.92;7.68;;;;;;;2.02;74.27;99753.19;5049452;28;20028;-79
2020/12/01 03:02:45;;;;;;;13.98;6.43;;;;;;;2.00;74.62;99750.75;5049545;28;20017;-80
2020/12/01 03:05:10;;;;;;;15.65;6.72;;;;;;;1.99;74.59;99746.50;5049442;28;20029;-80
2020/12/01 03:07:36;;;;;;;16.60;7.45;;;;;;;1.98;74.70;99762.50;5049656;28;20456;-82
2020/12/01 03:10:01;;;;;;;16.67;7.38;;;;;;;2.01;74.30;99756.84;5067340;28;20075;-83
2020/12/01 03:12:28;;;;;;;13.10;6.95;;;;;;;1.96;74.39;99743.44;5069355;28;20120;-82
2020/12/01 03:14:53;;;;;;;15.00;6.90;;;;;;;2.01;74.69;99749.72;5069581;28;20037;-78
2020/12/01 03:17:18;;;;;;;18.98;9.30;;;;;;;2.00;74.57;99752.56;5069318;28;20035;-79
2020/12/01 03:19:44;;;;;;;11.32;6.53;;;;;;;2.05;74.44;99764.16;5054846;28;20460;-83
2020/12/01 03:22:09;;;;;;;18.83;7.53;;;;;;;2.07;74.91;99770.03;5049409;28;20029;-84
2020/12/01 03:24:34;;;;;;;18.50;7.35;;;;;;;2.03;75.15;99760.91;5052876;28;20021;-77
2020/12/01 03:27:00;;;;;;;15.98;7.50;;;;;;;2.10;74.95;99765.38;5049439;28;20029;-79
2020/12/01 03:29:25;;;;;;;17.13;7.03;;;;;;;2.08;74.84;99766.38;5049054;28;20044;-77
2020/12/01 03:31:50;;;;;;;14.55;7.13;;;;;;;2.10;74.86;99766.19;5051551;28;20540;-78
2020/12/01 03:34:16;;;;;;;19.85;8.32;;;;;;;2.10;74.70;99762.72;5053279;28;20033;-85
2020/12/01 03:36:41;;;;;;;24.13;10.00;;;;;;;2.13;75.13;99767.63;5053150;28;20074;-78
2020/12/01 03:39:07;;;;;;;24.05;10.10;;;;;;;2.15;74.50;99765.56;5074555;28;20036;-81
2020/12/01 03:41:33;;;;;;;20.95;9.38;;;;;;;2.17;74.74;99776.75;5055139;28;20025;-84
2020/12/01 03:43:59;;;;;;;24.48;10.63;;;;;;;2.14;74.38;99764.75;5052951;28;20525;-78
2020/12/01 03:46:24;;;;;;;20.25;9.93;;;;;;;2.15;74.21;99776.94;5052829;28;20029;-82
2020/12/01 03:48:50;;;;;;;19.77;8.40;;;;;;;2.13;73.78;99767.63;5057128;28;20119;-83
2020/12/01 03:51:15;;;;;;;17.35;8.25;;;;;;;2.14;73.77;99770.03;5072916;28;20024;-79
2020/12/01 03:53:40;;;;;;;17.70;8.77;;;;;;;2.13;73.62;99773.69;5089870;28;20467;-79
2020/12/01 03:56:06;;;;;;;25.38;9.45;;;;;;;2.09;73.49;99769.84;5072478;28;20029;-79
2020/12/01 03:58:31;;;;;;;18.08;8.02;;;;;;;2.07;73.18;99780.56;5072656;28;20039;-79
2020/12/01 04:00:57;;;;;;;14.63;7.28;;;;;;;2.07;73.18;99777.13;5072706;28;20088;-80
2020/12/01 04:03:22;;;;;;;20.67;8.63;;;;;;;2.06;73.69;99767.59;5085805;28;20024;-78
2020/12/01 04:05:48;;;;;;;13.70;7.03;;;;;;;2.02;73.45;99772.47;5090342;28;20107;-79
2020/12/01 04:08:13;;;;;;;16.10;8.63;;;;;;;2.03;73.51;99774.09;5077628;28;20016;-80
2020/12/01 04:10:39;;;;;;;16.00;8.32;;;;;;;2.05;73.50;99764.16;5092691;28;20050;-85
2020/12/01 04:13:05;;;;;;;18.73;9.00;;;;;;;2.10;73.15;99770.63;5086515;28;20039;-80
2020/12/01 04:15:31;;;;;;;18.45;8.13;;;;;;;2.09;73.64;99769.84;5092055;28;20024;-79
2020/12/01 04:17:56;;;;;;;23.20;8.68;;;;;;;2.12;73.34;99781.81;5078084;28;20025;-82
2020/12/01 04:20:22;;;;;;;21.83;10.48;;;;;;;2.17;74.00;99774.94;5072918;28;20062;-86
2020/12/01 04:23:04;;;;;;;21.67;10.82;;;;;;;2.20;73.80;99771.06;5092457;28;20035;-88
2020/12/01 04:25:29;;;;;;;24.65;9.90;;;;;;;2.18;74.14;99767.81;5080457;28;20047;-86
2020/12/01 04:27:56;;;;;;;22.30;11.07;;;;;;;2.21;74.09;99775.31;5071910;28;20471;-83
2020/12/01 04:30:23;;;;;;;20.20;10.23;;;;;;;2.22;74.03;99777.75;5071577;28;20022;-83
2020/12/01 04:32:49;;;;;;;28.50;11.25;;;;;;;2.23;74.16;99774.13;5072131;28;20021;-84
2020/12/01 04:35:15;;;;;;;27.05;12.48;;;;;;;2.20;74.18;99776.34;5073987;28;20028;-82
2020/12/01 04:37:40;;;;;;;24.60;11.02;;;;;;;2.20;74.45;99773.72;5086455;28;20403;-83
2020/12/01 04:40:08;;;;;;;24.95;11.45;;;;;;;2.21;74.85;99775.31;5092182;28;20398;-85
2020/12/01 04:42:43;;;;;;;28.30;11.85;;;;;;;2.17;74.71;99782.84;5091405;28;20139;-84
2020/12/01 04:45:10;;;;;;;24.83;11.80;;;;;;;2.18;74.59;99773.88;5081748;28;20028;-84
2020/12/01 04:47:56;;;;;;;23.67;10.77;;;;;;;2.20;75.15;99769.22;5074218;28;20043;-84
2020/12/01 04:50:30;;;;;;;24.33;11.27;;;;;;;2.14;74.44;99767.41;5072258;28;20037;-81
2020/12/01 04:53:14;;;;;;;23.80;10.73;;;;;;;2.18;74.71;99775.72;5075600;28;20085;-80
2020/12/01 04:56:08;;;;;;;23.20;9.52;;;;;;;2.18;74.20;99770.44;5071706;28;20081;-81
2020/12/01 04:58:52;;;;;;;24.77;11.32;;;;;;;2.22;74.00;99777.75;5071233;28;20081;-84
2020/12/01 05:01:44;;;;;;;25.58;10.38;;;;;;;2.14;74.23;99770.03;5076879;28;20455;-83
2020/12/01 05:04:11;;;;;;;23.27;10.02;;;;;;;2.18;73.92;99779.16;5071534;28;20680;-81
2020/12/01 05:07:27;;;;;;;22.13;10.43;;;;;;;2.18;73.79;99767.81;5071104;28;20036;-79
2020/12/01 05:09:57;;;;;;;19.80;9.57;;;;;;;2.12;73.61;99769.41;5067012;28;20035;-85
2020/12/01 05:12:37;;;;;;;22.02;9.60;;;;;;;2.13;73.45;99771.06;5086754;28;20036;-85
2020/12/01 05:15:19;;;;;;;24.92;10.77;;;;;;;2.11;73.28;99765.16;5071524;28;20046;-83
2020/12/01 05:17:52;;;;;;;22.45;10.23;;;;;;;2.14;72.49;99771.88;5070744;28;20082;-90
2020/12/01 05:20:18;;;;;;;21.55;9.20;;;;;;;2.10;73.09;99768.84;5078287;28;20029;-85
2020/12/01 05:22:56;;;;;;;21.63;9.18;;;;;;;2.14;72.82;99772.69;5070900;28;20058;-83
2020/12/01 05:25:25;;;;;;;23.98;9.90;;;;;;;2.13;73.36;99776.31;5071646;28;20020;-78
2020/12/01 05:28:13;;;;;;;23.65;10.02;;;;;;;2.13;72.73;99770.25;5087964;28;20058;-80
2020/12/01 05:30:41;;;;;;;20.70;10.07;;;;;;;2.12;72.79;99776.53;5090901;28;20028;-77
2020/12/01 05:33:25;;;;;;;21.85;10.98;;;;;;;2.08;73.02;99769.00;5089205;28;20487;-75
2020/12/01 05:35:56;;;;;;;25.73;11.15;;;;;;;2.07;73.27;99777.13;5092076;28;20487;-78
2020/12/01 05:38:22;;;;;;;19.10;9.98;;;;;;;2.06;73.30;99775.50;5090883;28;20051;-79
2020/12/01 05:41:00;;;;;;;28.13;11.80;;;;;;;1.96;73.38;99781.19;5090922;28;20055;-79
2020/12/01 05:43:37;;;;;;;26.58;11.25;;;;;;;1.96;73.28;99780.38;5090791;28;20031;-77
2020/12/01 05:46:26;;;;;;;23.95;11.00;;;;;;;2.01;73.38;99791.94;5090896;28;20032;-80
2020/12/01 05:49:27;;;;;;;30.90;13.07;;;;;;;2.01;73.35;99791.94;5090544;28;20093;-78
2020/12/01 05:52:10;;;;;;;26.98;12.73;;;;;;;1.99;73.59;99794.00;5090859;28;20024;-81
2020/12/01 05:54:39;;;;;;;35.72;13.52;;;;;;;1.86;73.51;99772.88;5089758;28;20032;-78
2020/12/01 05:57:22;;;;;;;27.50;11.25;;;;;;;1.93;73.88;99794.78;5090729;28;20020;-77
2020/12/01 05:59:52;;;;;;;26.10;12.27;;;;;;;1.92;73.59;99801.88;5090774;28;20024;-76
2020/12/01 06:02:43;;;;;;;20.50;10.13;;;;;;;1.87;73.49;99796.41;5090414;28;20016;-77
2020/12/01 06:05:13;;;;;;;20.85;10.18;;;;;;;1.85;73.65;99800.25;5061737;28;20089;-77
2020/12/01 06:07:43;;;;;;;19.60;10.88;;;;;;;1.85;73.60;99795.78;5090295;28;20024;-77
2020/12/01 06:10:16;;;;;;;22.75;10.95;;;;;;;1.85;73.86;99798.41;5090342;28;20028;-77
2020/12/01 06:12:54;;;;;;;33.40;11.18;;;;;;;1.80;73.61;99798.19;5089999;28;20020;-77
2020/12/01 06:15:21;;;;;;;23.33;11.52;;;;;;;1.74;74.07;99793.72;5090126;28;20111;-77
2020/12/01 06:17:59;;;;;;;24.30;11.77;;;;;;;1.73;73.81;99797.38;5090357;28;20027;-78
2020/12/01 06:20:51;;;;;;;23.65;11.90;;;;;;;1.64;74.00;99799.38;5090034;28;20031;-78
2020/12/01 06:23:25;;;;;;;24.08;11.30;;;;;;;1.67;74.59;99799.00;5090324;28;20474;-79
2020/12/01 06:26:09;;;;;;;30.73;12.13;;;;;;;1.66;74.03;99804.44;5090211;28;20028;-77
2020/12/01 06:28:53;;;;;;;29.77;12.95;;;;;;;1.60;74.45;99796.31;5089873;28;20043;-77
2020/12/01 06:31:45;;;;;;;28.20;10.80;;;;;;;1.65;74.50;99806.28;5090169;28;20052;-77
2020/12/01 06:34:35;;;;;;;31.13;14.55;;;;;;;1.69;74.54;99804.88;5090213;28;20115;-75
2020/12/01 06:37:23;;;;;;;27.75;12.48;;;;;;;1.75;74.83;99806.69;5091090;28;20015;-77
2020/12/01 06:39:53;;;;;;;23.83;11.98;;;;;;;1.82;74.53;99809.38;5090095;28;20023;-77
2020/12/01 06:42:27;;;;;;;24.30;11.13;;;;;;;1.89;74.84;99810.19;5089986;28;20386;-75
2020/12/01 06:45:00;;;;;;;26.52;11.98;;;;;;;1.93;74.91;99805.34;5089956;28;20024;-76
2020/12/01 06:47:32;;;;;;;21.58;10.73;;;;;;;2.11;74.60;99806.56;5090987;28;20463;-76
2020/12/01 06:50:13;;;;;;;32.75;12.82;;;;;;;2.26;75.08;99809.00;5089728;28;20028;-78
2020/12/01 06:52:38;;;;;;;24.65;11.32;;;;;;;2.37;75.06;99800.50;5089684;28;20028;-77
2020/12/01 06:55:04;;;;;;;26.70;11.55;;;;;;;2.52;74.16;99806.38;5089870;28;20020;-76
2020/12/01 06:57:38;;;;;;;24.13;11.27;;;;;;;2.65;74.01;99810.84;5089631;28;20024;-77
2020/12/01 07:00:06;;;;;;;25.02;11.82;;;;;;;2.75;72.77;99805.16;5089837;28;20466;-75
2020/12/01 07:02:35;;;;;;;29.03;12.70;;;;;;;2.80;72.82;99807.19;5090689;28;20031;-76
2020/12/01 07:05:10;;;;;;;24.73;11.85;;;;;;;2.90;72.81;99807.56;5090965;28;20024;-77
2020/12/01 07:07:39;;;;;;;26.85;11.93;;;;;;;2.88;73.28;99788.44;5093737;28;20032;-77
2020/12/01 07:10:28;;;;;;;29.50;13.38;;;;;;;3.06;72.68;99800.22;5093832;28;20027;-84
2020/12/01 07:13:05;;;;;;;28.52;12.00;;;;;;;3.19;72.78;99808.09;5093813;28;20024;-83
2020/12/01 07:15:42;;;;;;;26.00;11.68;;;;;;;3.34;72.42;99813.13;5093649;28;20038;-86
2020/12/01 07:18:25;;;;;;;27.88;14.65;;;;;;;3.38;72.22;99802.94;5093892;28;20054;-86
2020/12/01 07:21:07;;;;;;;27.23;12.40;;;;;;;3.25;72.33;99764.97;5093663;28;20481;-84
2020/12/01 07:23:48;;;;;;;23.48;10.68;;;;;;;3.53;72.06;99806.94;5093676;28;20024;-87
2020/12/01 07:26:25;;;;;;;28.48;11.52;;;;;;;3.50;71.60;99801.25;5093795;28;20027;-86
2020/12/01 07:28:58;;;;;;;28.45;12.35;;;;;;;3.61;71.42;99803.22;5093475;28;20043;-82
2020/12/01 07:31:29;;;;;;;28.65;12.52;;;;;;;3.50;72.04;99791.50;5093425;28;20046;-81
2020/12/01 07:34:00;;;;;;;27.25;12.48;;;;;;;3.53;72.60;99798.19;5093646;28;20059;-86
2020/12/01 07:36:32;;;;;;;27.88;11.00;;;;;;;3.52;72.26;99805.31;5093860;28;20047;-87
2020/12/01 07:39:15;;;;;;;30.20;11.18;;;;;;;3.58;72.80;99808.16;5093384;28;20085;-84
2020/12/01 07:41:46;;;;;;;19.30;10.13;;;;;;;3.61;71.98;99799.78;5093213;28;20035;-84
2020/12/01 07:44:14;;;;;;;26.50;11.43;;;;;;;3.73;72.31;99803.38;5096209;28;20023;-87
2020/12/01 07:47:02;;;;;;;26.88;12.55;;;;;;;3.77;71.54;99798.47;5094768;28;20035;-84
2020/12/01 07:49:27;;;;;;;20.02;10.32;;;;;;;3.77;70.71;99795.81;5106778;28;20043;-88
2020/12/01 07:52:16;;;;;;;28.10;12.45;;;;;;;3.75;71.69;99792.56;5106529;28;20147;-89
2020/12/01 07:54:43;;;;;;;;;;;;;;;3.84;72.20;99799.25;5097118;28;20028;-81
2020/12/01 07:57:27;;;;;;;27.17;10.93;;;;;;;3.82;71.24;99801.28;5096509;28;19907;-78
2020/12/01 07:59:52;;;;;;;29.25;12.40;;;;;;;3.87;71.23;99805.94;5096352;28;20055;-80
2020/12/01 08:02:24;;;;;;;26.15;10.85;;;;;;;3.80;69.86;99798.06;5096443;28;20023;-83
2020/12/01 08:05:02;;;;;;;26.35;11.75;;;;;;;3.72;69.39;99793.81;5091742;28;20051;-73
2020/12/01 08:07:27;;;;;;;27.45;13.05;;;;;;;3.59;70.08;99783.31;5082664;28;20020;-78
2020/12/01 08:10:19;;;;;;;20.95;11.40;;;;;;;3.61;69.62;99813.81;5088121;28;20027;-74
2020/12/01 08:12:47;;;;;;;29.63;11.32;;;;;;;3.36;70.84;99776.72;5093599;28;20084;-73
2020/12/01 08:15:15;;;;;;;25.05;9.30;;;;;;;3.51;69.54;99806.31;5075720;28;20016;-74
2020/12/01 08:17:42;;;;;;;22.45;10.80;;;;;;;3.56;70.24;99811.00;5074635;28;20042;-74
2020/12/01 08:20:10;;;;;;;24.15;10.52;;;;;;;3.59;69.55;99807.09;5108676;28;20036;-74
2020/12/01 08:22:39;;;;;;;22.70;11.90;;;;;;;3.71;69.50;99817.84;5113575;28;20020;-76
2020/12/01 08:25:12;;;;;;;19.25;9.20;;;;;;;3.71;67.79;99815.19;5106436;28;20077;-75
2020/12/01 08:27:48;;;;;;;21.95;9.75;;;;;;;3.68;68.70;99813.78;5078705;28;20019;-78
2020/12/01 08:30:27;;;;;;;22.80;9.35;;;;;;;3.70;68.44;99814.41;5083199;28;20016;-72
2020/12/01 08:33:07;;;;;;;23.38;11.95;;;;;;;3.72;69.44;99811.53;5095868;28;20474;-75
2020/12/01 08:35:45;;;;;;;20.70;8.98;;;;;;;3.72;68.93;99812.34;5076119;28;20024;-76
2020/12/01 08:38:10;;;;;;;23.45;10.20;;;;;;;3.64;67.91;99797.53;5085554;28;20024;-81
2020/12/01 08:40:48;;;;;;;23.35;9.38;;;;;;;3.72;68.16;99800.94;5079658;28;20028;-82
2020/12/01 08:43:29;;;;;;;17.80;10.23;;;;;;;3.73;67.57;99802.59;5079351;28;20382;-77
2020/12/01 08:46:07;;;;;;;18.60;8.65;;;;;;;3.66;64.19;99790.19;5082334;28;20291;-77
2020/12/01 08:48:38;;;;;;;17.02;6.93;;;;;;;3.65;65.80;99785.94;5097590;28;20046;-75
2020/12/01 08:51:42;;;;;;;18.42;8.82;;;;;;;3.67;66.64;99777.78;5074454;28;20031;-73
2020/12/01 08:54:13;;;;;;;15.25;7.72;;;;;;;3.84;65.69;99788.66;5106337;28;20111;-79
2020/12/01 08:56:49;;;;;;;13.77;7.47;;;;;;;3.93;64.72;99786.56;5092887;28;20450;-82
2020/12/01 08:59:35;;;;;;;18.30;8.15;;;;;;;3.97;64.74;99780.63;5091186;28;20374;-77
2020/12/01 09:02:03;;;;;;;18.20;8.65;;;;;;;4.00;65.46;99776.75;5073135;28;20070;-77
2020/12/01 09:04:31;;;;;;;17.20;8.30;;;;;;;4.05;63.86;99778.75;5073992;28;20020;-75
2020/12/01 09:07:26;;;;;;;19.10;7.88;;;;;;;4.07;63.90;99769.56;5084016;28;20547;-76
2020/12/01 09:10:04;;;;;;;15.57;7.25;;;;;;;4.04;63.04;99767.38;5083032;28;20047;-85
2020/12/01 09:23:40;;;;;;;13.02;6.47;;;;;;;3.79;59.94;99744.31;5095595;28;20055;-76
2020/12/01 09:26:18;;;;;;;13.63;6.55;;;;;;;3.84;62.21;99743.69;5073680;28;20016;-75
2020/12/01 09:28:50;;;;;;;13.55;6.60;;;;;;;3.87;62.00;99742.44;5088257;28;20024;-76
2020/12/01 09:31:16;;;;;;;14.15;5.72;;;;;;;3.73;59.05;99728.50;5082936;28;20103;-75
2020/12/01 09:33:42;;;;;;;11.70;6.60;;;;;;;3.78;60.10;99736.59;5077772;28;20094;-74
2020/12/01 09:36:07;;;;;;;13.95;6.80;;;;;;;3.73;60.21;99731.16;5074315;28;20027;-77
2020/12/01 09:38:33;;;;;;;12.95;6.28;;;;;;;3.77;60.68;99733.16;5073848;28;20028;-75
2020/12/01 09:40:58;;;;;;;13.25;7.15;;;;;;;3.74;60.40;99730.13;5079073;28;20023;-74
2020/12/01 09:43:32;;;;;;;13.80;5.90;;;;;;;3.75;60.20;99721.16;5110637;28;20027;-74
2020/12/01 09:46:03;;;;;;;9.93;5.22;;;;;;;3.84;58.17;99728.63;5094338;28;20022;-75
2020/12/01 09:48:41;;;;;;;11.75;6.05;;;;;;;3.85;58.43;99721.50;5087953;28;20110;-74
2020/12/01 09:51:07;;;;;;;13.07;6.38;;;;;;;3.90;58.19;99702.34;5108370;28;20366;-72
2020/12/01 10:09:30;;;;;;;10.27;5.18;;;;;;;4.35;54.94;99696.03;5112044;28;20066;-73
2020/12/01 10:17:40;;;;;;;13.10;5.22;;;;;;;4.32;58.18;99691.97;5106529;28;20046;-73
2020/12/01 10:36:24;;;;;;;8.85;5.63;;;;;;;4.08;56.92;99662.69;5106101;28;20035;-72
2020/12/01 10:38:50;;;;;;;9.57;5.03;;;;;;;4.16;58.37;99666.88;5081943;28;20380;-72
2020/12/01 10:41:15;;;;;;;9.55;4.25;;;;;;;4.21;55.16;99667.06;5105888;28;20077;-73
2020/12/01 10:43:41;;;;;;;8.68;4.13;;;;;;;4.21;54.91;99659.09;5089790;28;20490;-74
2020/12/01 10:46:11;;;;;;;10.30;4.68;;;;;;;4.23;53.60;99656.22;5085578;28;20545;-73
2020/12/01 10:48:37;;;;;;;7.47;4.82;;;;;;;4.28;55.30;99654.53;5105060;28;20074;-74
2020/12/01 10:51:04;;;;;;;11.20;5.32;;;;;;;4.31;55.54;99640.06;5080338;28;20047;-73
2020/12/01 10:53:29;;;;;;;9.25;5.35;;;;;;;4.27;56.67;99637.06;5097868;28;20489;-73
2020/12/01 10:55:56;;;;;;;8.98;5.07;;;;;;;4.51;57.07;99654.94;5091894;28;20023;-73
2020/12/01 10:58:21;;;;;;;10.02;5.53;;;;;;;4.65;56.80;99659.03;5091279;28;20048;-73
2020/12/01 11:00:47;;;;;;;9.18;5.05;;;;;;;4.67;54.93;99633.13;5090609;28;20052;-72
2020/12/01 11:03:12;;;;;;;10.15;5.38;;;;;;;4.81;53.76;99634.59;5091101;28;20021;-72
2020/12/01 11:05:37;;;;;;;8.45;4.57;;;;;;;4.89;53.76;99636.09;5072736;28;20023;-72
2020/12/01 11:08:03;;;;;;;10.80;5.25;;;;;;;4.97;53.41;99640.31;5091319;28;20024;-72
2020/12/01 11:10:28;;;;;;;10.02;4.22;;;;;;;4.90;52.41;99627.13;5090928;28;20024;-72
2020/12/01 11:12:54;;;;;;;10.45;5.72;;;;;;;5.01;53.13;99628.22;5072716;28;20051;-73
2020/12/01 11:15:20;;;;;;;10.27;5.00;;;;;;;5.02;53.62;99621.09;5091014;28;20516;-71
2020/12/01 11:17:46;;;;;;;9.40;5.00;;;;;;;5.17;53.23;99629.44;5090457;28;20046;-72
2020/12/01 11:20:12;;;;;;;12.25;6.75;;;;;;;5.26;54.41;99632.56;5090944;28;20411;-72
2020/12/01 11:22:38;;;;;;;11.60;6.43;;;;;;;5.35;55.00;99627.75;5072518;28;20020;-72
2020/12/01 11:25:04;;;;;;;12.45;6.68;;;;;;;5.46;55.64;99611.06;5091054;28;20016;-71
2020/12/01 11:27:29;;;;;;;13.43;6.65;;;;;;;5.48;54.00;99614.31;5090724;28;20020;-73
2020/12/01 11:29:55;;;;;;;12.23;5.55;;;;;;;5.51;53.51;99600.56;5090648;28;20358;-73
2020/12/01 11:32:21;;;;;;;10.48;5.55;;;;;;;5.53;52.30;99597.69;5090264;28;20145;-73
2020/12/01 11:34:46;;;;;;;9.02;4.97;;;;;;;5.52;52.88;99604.03;5090170;28;20085;-73
2020/12/01 11:37:12;;;;;;;11.73;6.15;;;;;;;5.37;52.78;99585.88;5090731;28;20024;-73
2020/12/01 11:39:37;;;;;;;14.38;6.30;;;;;;;5.38;53.44;99598.13;5090140;28;20051;-73
2020/12/01 11:42:03;;;;;;;12.32;6.35;;;;;;;5.27;53.72;99602.34;5090799;28;20532;-73
2020/12/01 11:44:28;;;;;;;8.38;4.80;;;;;;;5.24;51.20;99597.53;5090633;28;20020;-73
2020/12/01 11:46:55;;;;;;;11.70;5.13;;;;;;;5.13;50.09;99591.94;5082164;28;20020;-73
2020/12/01 11:49:21;;;;;;;9.55;5.32;;;;;;;5.05;49.84;99588.81;5091202;28;20040;-73
2020/12/01 11:51:48;;;;;;;11.45;5.65;;;;;;;5.04;49.99;99595.97;5111355;28;20031;-73
2020/12/01 11:54:15;;;;;;;9.73;5.25;;;;;;;4.94;50.72;99585.91;5089241;28;20019;-73
2020/12/01 11:56:40;;;;;;;10.18;6.07;;;;;;;5.04;51.19;99595.16;5114451;28;20386;-73
2020/12/01 11:59:06;;;;;;;12.20;5.38;;;;;;;5.04;52.52;99590.66;5096761;28;20028;-73
2020/12/01 12:01:34;;;;;;;9.20;5.20;;;;;;;5.09;52.00;99589.97;5091675;28;20028;-72
2020/12/01 12:03:59;;;;;;;6.00;3.30;;;;;;;5.10;50.59;99586.28;5114543;28;20477;-72
2020/12/01 12:06:25;;;;;;;9.73;4.60;;;;;;;5.13;50.94;99588.50;5091431;28;20023;-72
2020/12/01 12:08:50;;;;;;;10.15;4.20;;;;;;;5.16;49.07;99585.38;5087063;28;20028;-72
2020/12/01 12:11:15;;;;;;;9.45;4.78;;;;;;;5.02;49.11;99568.06;5095316;28;20024;-72
2020/12/01 12:13:45;;;;;;;9.07;5.40;;;;;;;5.10;49.63;99580.97;5076650;28;20031;-71
2020/12/01 12:16:12;;;;;;;9.80;4.78;;;;;;;4.95;48.99;99565.50;5100006;28;20094;-74
2020/12/01 12:18:37;;;;;;;11.65;5.43;;;;;;;4.93;51.20;99578.16;5099572;28;20032;-74
2020/12/01 12:21:03;;;;;;;12.52;5.38;;;;;;;4.88;51.05;99575.38;5083382;28;20020;-73
2020/12/01 12:23:28;;;;;;;9.73;5.13;;;;;;;4.83;50.24;99575.25;5097190;28;20023;-76
2020/12/01 12:25:53;;;;;;;10.43;4.57;;;;;;;4.65;51.43;99564.47;5084178;28;20517;-74
2020/12/01 12:28:19;;;;;;;13.27;5.65;;;;;;;4.65;51.80;99566.31;5095748;28;20015;-74
2020/12/01 12:30:47;;;;;;;13.68;5.95;;;;;;;4.54;53.93;99559.94;5080441;28;20518;-73
2020/12/01 12:33:12;;;;;;;15.50;6.17;;;;;;;4.54;53.40;99575.84;5075530;28;20459;-74
2020/12/01 12:35:37;;;;;;;10.25;5.38;;;;;;;4.43;52.97;99580.03;5075378;28;20023;-75
2020/12/01 12:38:03;;;;;;;11.18;5.85;;;;;;;4.35;52.89;99572.38;5075458;28;20174;-75
2020/12/01 12:40:28;;;;;;;8.40;4.78;;;;;;;4.36;53.21;99586.41;5090596;28;20485;-74